createdAt,value
2023-03-29T00:00:09.887Z,101580.50
2023-03-29T00:02:39.679Z,101583.59
2023-03-29T00:05:09.638Z,101591.72
2023-03-29T00:07:37.478Z,101580.09
2023-03-29T00:10:08.274Z,101581.28
2023-03-29T00:12:36.050Z,101578.19
2023-03-29T00:15:04.527Z,101575.06
2023-03-29T00:17:32.416Z,101569.25
2023-03-29T00:20:02.154Z,101579.69
2023-03-29T00:22:55.711Z,101575.41
2023-03-29T00:25:46.777Z,101563.84
2023-03-29T00:28:14.856Z,101556.84
2023-03-29T00:30:42.633Z,101550.66
2023-03-29T00:33:11.461Z,101538.66
2023-03-29T00:35:39.566Z,101534.38
2023-03-29T00:38:07.899Z,101531.28
2023-03-29T00:40:41.512Z,101537.44
2023-03-29T00:43:12.414Z,101535.94
2023-03-29T00:45:40.250Z,101521.97
2023-03-29T00:48:09.986Z,101527.38
2023-03-29T00:50:41.974Z,101521.22
2023-03-29T00:53:13.462Z,101525.03
2023-03-29T00:55:46.928Z,101520.00
2023-03-29T00:58:21.089Z,101514.59
2023-03-29T01:00:53.867Z,101510.72
2023-03-29T01:03:24.851Z,101504.50
2023-03-29T01:05:57.566Z,101508.72
2023-03-29T01:08:30.567Z,101506.38
2023-03-29T01:11:04.670Z,101490.50
2023-03-29T01:13:39.544Z,101491.25
2023-03-29T01:16:10.258Z,101483.84
2023-03-29T01:18:38.699Z,101490.03
2023-03-29T01:21:19.421Z,101493.47
2023-03-29T01:24:24.833Z,101483.34
2023-03-29T01:27:01.675Z,101473.22
2023-03-29T01:29:35.165Z,101486.38
2023-03-29T01:32:08.894Z,101487.44
2023-03-29T01:34:42.817Z,101478.53
2023-03-29T01:37:15.667Z,101481.16
2023-03-29T01:39:43.512Z,101486.91
2023-03-29T01:42:19.681Z,101484.91
2023-03-29T01:44:56.593Z,101470.97
2023-03-29T01:47:30.653Z,101469.38
2023-03-29T01:50:07.608Z,101463.91
2023-03-29T01:52:39.682Z,101465.41
2023-03-29T01:55:13.694Z,101464.97
2023-03-29T01:57:45.593Z,101460.66
2023-03-29T02:00:19.782Z,101461.03
2023-03-29T02:02:49.774Z,101456.72
2023-03-29T02:05:19.686Z,101457.91
2023-03-29T02:07:50.486Z,101450.56
2023-03-29T02:10:19.862Z,101453.63
2023-03-29T02:12:47.854Z,101446.28
2023-03-29T02:15:19.703Z,101446.69
2023-03-29T02:17:48.128Z,101443.97
2023-03-29T02:20:22.582Z,101440.06
2023-03-29T02:22:59.597Z,101444.34
2023-03-29T02:25:27.644Z,101445.50
2023-03-29T02:27:55.876Z,101434.66
2023-03-29T02:30:31.483Z,101424.22
2023-03-29T02:33:05.765Z,101432.72
2023-03-29T02:35:36.823Z,101428.84
2023-03-29T02:38:07.043Z,101427.31
2023-03-29T02:40:37.646Z,101421.09
2023-03-29T02:43:08.562Z,101415.66
2023-03-29T02:45:39.670Z,101422.25
2023-03-29T02:48:11.502Z,101422.59
2023-03-29T02:50:42.163Z,101415.22
2023-03-29T02:53:16.123Z,101411.38
2023-03-29T02:55:46.851Z,101414.84
2023-03-29T02:58:15.704Z,101405.16
2023-03-29T03:00:47.469Z,101407.84
2023-03-29T03:03:16.749Z,101395.09
2023-03-29T03:05:47.729Z,101402.03
2023-03-29T03:08:15.833Z,101408.22
2023-03-29T03:10:43.719Z,101400.09
2023-03-29T03:13:11.690Z,101401.63
2023-03-29T03:15:42.773Z,101393.16
2023-03-29T03:18:12.684Z,101389.66
2023-03-29T03:20:40.909Z,101376.81
2023-03-29T03:23:09.594Z,101376.13
2023-03-29T03:25:38.140Z,101372.28
2023-03-29T03:28:06.369Z,101373.84
2023-03-29T03:30:34.662Z,101376.94
2023-03-29T03:33:09.052Z,101385.06
2023-03-29T03:36:02.994Z,101370.34
2023-03-29T03:38:31.460Z,101363.72
2023-03-29T03:41:02.390Z,101371.09
2023-03-29T03:43:34.347Z,101377.63
2023-03-29T03:46:02.337Z,101376.88
2023-03-29T03:48:31.620Z,101381.09
2023-03-29T03:51:11.203Z,101371.81
2023-03-29T03:53:39.149Z,101371.81
2023-03-29T03:56:16.751Z,101380.72
2023-03-29T03:59:04.695Z,101383.00
2023-03-29T04:01:44.886Z,101369.03
2023-03-29T04:04:17.387Z,101381.41
2023-03-29T04:07:02.686Z,101372.94
2023-03-29T04:09:41.058Z,101367.50
2023-03-29T04:12:27.436Z,101367.88
2023-03-29T04:14:56.107Z,101376.75
2023-03-29T04:17:25.683Z,101366.69
2023-03-29T04:20:07.093Z,101371.75
2023-03-29T04:22:36.449Z,101365.91
2023-03-29T04:25:04.556Z,101358.13
2023-03-29T04:28:11.890Z,101352.72
2023-03-29T04:30:46.927Z,101350.00
2023-03-29T04:33:33.381Z,101365.84
2023-03-29T04:36:02.244Z,101348.41
2023-03-29T04:38:36.082Z,101351.47
2023-03-29T04:41:04.994Z,101341.03
2023-03-29T04:43:52.141Z,101339.50
2023-03-29T04:46:26.761Z,101330.19
2023-03-29T04:49:13.550Z,101346.47
2023-03-29T04:51:45.759Z,101346.47
2023-03-29T04:54:14.926Z,101338.69
2023-03-29T04:57:01.345Z,101339.03
2023-03-29T04:59:46.883Z,101343.25
2023-03-29T05:02:40.622Z,101338.63
2023-03-29T05:05:09.312Z,101340.91
2023-03-29T05:07:37.456Z,101337.03
2023-03-29T05:10:08.311Z,101338.91
2023-03-29T05:12:36.702Z,101327.66
2023-03-29T05:15:04.793Z,101332.63
2023-03-29T05:17:33.537Z,101322.56
2023-03-29T05:20:11.165Z,101329.16
2023-03-29T05:22:40.206Z,101322.56
2023-03-29T05:25:13.314Z,101331.81
2023-03-29T05:27:43.268Z,101332.59
2023-03-29T05:30:13.349Z,101334.88
2023-03-29T05:33:02.997Z,101333.28
2023-03-29T05:35:31.384Z,101330.59
2023-03-29T05:38:01.745Z,101337.53
2023-03-29T05:40:32.243Z,101342.94
2023-03-29T05:43:22.267Z,101342.53
2023-03-29T05:45:50.271Z,101340.59
2023-03-29T05:48:18.359Z,101339.00
2023-03-29T05:50:48.917Z,101333.91
2023-03-29T05:53:17.408Z,101327.28
2023-03-29T05:55:47.300Z,101338.50
2023-03-29T05:58:20.584Z,101343.53
2023-03-29T06:00:51.310Z,101339.63
2023-03-29T06:03:35.320Z,101334.53
2023-03-29T06:06:04.751Z,101342.28
2023-03-29T06:08:35.286Z,101339.91
2023-03-29T06:11:24.284Z,101346.44
2023-03-29T06:14:13.488Z,101351.78
2023-03-29T06:16:47.053Z,101348.25
2023-03-29T06:19:15.967Z,101341.22
2023-03-29T06:21:44.188Z,101345.88
2023-03-29T06:24:15.636Z,101341.59
2023-03-29T06:26:50.436Z,101341.50
2023-03-29T06:29:18.949Z,101346.88
2023-03-29T06:31:48.160Z,101339.84
2023-03-29T06:34:38.567Z,101351.34
2023-03-29T06:37:29.112Z,101347.81
2023-03-29T06:40:18.704Z,101344.63
2023-03-29T06:42:48.858Z,101356.94
2023-03-29T06:45:38.603Z,101346.78
2023-03-29T06:48:12.548Z,101350.94
2023-03-29T06:50:41.952Z,101355.13
2023-03-29T06:53:15.982Z,101356.22
2023-03-29T06:55:47.486Z,101353.41
2023-03-29T06:58:42.621Z,101352.91
2023-03-29T07:01:27.251Z,101347.41
2023-03-29T07:04:04.747Z,101364.41
2023-03-29T07:06:39.033Z,101355.41
2023-03-29T07:09:07.848Z,101367.38
2023-03-29T07:12:10.958Z,101369.16
2023-03-29T07:14:40.438Z,101359.25
2023-03-29T07:17:08.533Z,101358.84
2023-03-29T07:19:40.243Z,101353.66
2023-03-29T07:22:14.124Z,101356.19
2023-03-29T07:24:50.788Z,101369.28
2023-03-29T07:27:19.569Z,101360.28
2023-03-29T07:29:51.451Z,101369.09
2023-03-29T07:32:20.192Z,101362.38
2023-03-29T07:35:10.144Z,101364.28
2023-03-29T07:37:39.127Z,101370.06
2023-03-29T07:40:12.259Z,101357.91
2023-03-29T07:42:49.578Z,101368.34
2023-03-29T07:45:26.630Z,101362.06
2023-03-29T07:48:01.197Z,101366.53
2023-03-29T07:50:42.026Z,101371.47
2023-03-29T07:53:09.903Z,101382.59
2023-03-29T07:55:37.930Z,101376.22
2023-03-29T07:58:27.618Z,101372.56
2023-03-29T08:00:57.613Z,101359.94
2023-03-29T08:03:48.485Z,101368.03
2023-03-29T08:06:17.692Z,101374.16
2023-03-29T08:08:46.239Z,101369.81
2023-03-29T08:11:17.801Z,101370.06
2023-03-29T08:13:58.998Z,101375.41
2023-03-29T08:16:28.462Z,101368.75
2023-03-29T08:19:09.983Z,101369.88
2023-03-29T08:21:51.962Z,101380.22
2023-03-29T08:24:22.108Z,101376.53
2023-03-29T08:26:54.935Z,101373.28
2023-03-29T08:29:23.380Z,101372.00
2023-03-29T08:31:52.658Z,101363.72
2023-03-29T08:34:20.475Z,101354.59
2023-03-29T08:37:14.910Z,101354.81
2023-03-29T08:39:46.665Z,101355.81
2023-03-29T08:42:52.241Z,101348.19
2023-03-29T08:45:30.501Z,101350.81
2023-03-29T08:48:09.815Z,101356.16
2023-03-29T08:50:43.795Z,101353.00
2023-03-29T08:53:17.837Z,101340.03
2023-03-29T08:56:13.616Z,101356.94
2023-03-29T08:58:49.033Z,101369.34
2023-03-29T09:01:17.390Z,101370.56
2023-03-29T09:04:04.520Z,101372.41
2023-03-29T09:07:03.499Z,101374.69
2023-03-29T09:09:39.285Z,101376.13
2023-03-29T09:12:27.015Z,101374.81
2023-03-29T09:15:08.572Z,101375.91
2023-03-29T09:17:49.823Z,101371.97
2023-03-29T09:20:33.241Z,101381.22
2023-03-29T09:23:22.244Z,101366.75
2023-03-29T09:26:18.204Z,101370.44
2023-03-29T09:29:17.318Z,101378.06
2023-03-29T09:31:46.396Z,101370.88
2023-03-29T09:34:23.026Z,101366.41
2023-03-29T09:37:06.498Z,101368.25
2023-03-29T09:39:34.495Z,101366.03
2023-03-29T09:42:11.879Z,101382.06
2023-03-29T09:44:44.792Z,101374.53
2023-03-29T09:47:24.835Z,101374.72
2023-03-29T09:49:58.596Z,101369.03
2023-03-29T09:52:27.814Z,101365.50
2023-03-29T09:55:06.543Z,101363.09
2023-03-29T09:57:54.492Z,101372.47
2023-03-29T10:00:22.803Z,101373.47
2023-03-29T10:02:54.625Z,101373.06
2023-03-29T10:05:31.982Z,101374.25
2023-03-29T10:08:03.182Z,101371.50
2023-03-29T10:10:32.914Z,101375.97
2023-03-29T10:13:04.813Z,101380.88
2023-03-29T10:15:33.398Z,101370.63
2023-03-29T10:18:03.398Z,101367.31
2023-03-29T10:20:31.656Z,101371.34
2023-03-29T10:23:00.839Z,101371.41
2023-03-29T10:25:32.838Z,101367.34
2023-03-29T10:28:07.108Z,101358.44
2023-03-29T10:30:37.358Z,101351.19
2023-03-29T10:33:05.747Z,101350.50
2023-03-29T10:35:40.282Z,101349.00
2023-03-29T10:38:14.758Z,101362.41
2023-03-29T10:40:47.138Z,101358.75
2023-03-29T10:43:22.943Z,101347.28
2023-03-29T10:45:52.059Z,101349.09
2023-03-29T10:48:24.979Z,101339.81
2023-03-29T10:50:53.292Z,101340.13
2023-03-29T10:53:26.737Z,101336.47
2023-03-29T10:56:05.222Z,101336.28
2023-03-29T10:58:40.018Z,101348.88
2023-03-29T11:01:13.981Z,101328.97
2023-03-29T11:04:13.130Z,101323.66
2023-03-29T11:06:48.310Z,101324.09
2023-03-29T11:09:25.408Z,101324.41
2023-03-29T11:12:15.749Z,101315.78
2023-03-29T11:14:55.231Z,101326.56
2023-03-29T11:17:37.810Z,101327.84
2023-03-29T11:20:19.334Z,101313.22
2023-03-29T11:22:53.833Z,101304.56
2023-03-29T11:25:32.172Z,101307.81
2023-03-29T11:28:10.855Z,101300.94
2023-03-29T11:30:45.408Z,101309.16
2023-03-29T11:33:36.088Z,101312.75
2023-03-29T11:36:13.840Z,101308.94
2023-03-29T11:38:49.146Z,101313.22
2023-03-29T11:41:20.118Z,101316.13
2023-03-29T11:43:55.073Z,101313.91
2023-03-29T11:46:29.541Z,101309.81
2023-03-29T11:49:02.991Z,101316.22
2023-03-29T11:51:35.470Z,101311.50
2023-03-29T11:54:06.953Z,101309.09
2023-03-29T11:56:41.254Z,101307.47
2023-03-29T11:59:16.235Z,101308.41
2023-03-29T12:01:48.923Z,101323.78
2023-03-29T12:04:22.862Z,101329.59
2023-03-29T12:07:01.927Z,101328.09
2023-03-29T12:09:35.945Z,101320.97
2023-03-29T12:12:09.947Z,101320.03
2023-03-29T12:14:50.949Z,101324.13
2023-03-29T12:17:22.101Z,101309.72
2023-03-29T12:20:04.264Z,101313.19
2023-03-29T12:22:33.487Z,101305.78
2023-03-29T12:25:04.750Z,101301.06
2023-03-29T12:27:38.365Z,101304.72
2023-03-29T12:30:34.419Z,101311.09
2023-03-29T12:33:17.960Z,101308.94
2023-03-29T12:36:07.889Z,101303.94
2023-03-29T12:39:15.782Z,101301.63
2023-03-29T12:42:14.143Z,101301.91
2023-03-29T12:45:21.263Z,101305.53
2023-03-29T12:47:52.928Z,101303.72
2023-03-29T12:50:28.383Z,101302.19
2023-03-29T12:53:18.905Z,101301.41
2023-03-29T12:55:55.141Z,101290.63
2023-03-29T12:58:27.796Z,101262.56
2023-03-29T13:01:06.387Z,101253.13
2023-03-29T13:03:47.806Z,101252.41
2023-03-29T13:06:28.898Z,101236.63
2023-03-29T13:09:01.861Z,101234.19
2023-03-29T13:11:34.053Z,101236.03
2023-03-29T13:14:04.915Z,101239.66
2023-03-29T13:16:35.934Z,101233.31
2023-03-29T13:19:10.641Z,101230.72
2023-03-29T13:21:48.301Z,101228.75
2023-03-29T13:24:41.012Z,101209.63
2023-03-29T13:27:17.789Z,101208.72
2023-03-29T13:30:01.416Z,101214.97
2023-03-29T13:32:42.236Z,101210.84
2023-03-29T13:35:21.366Z,101207.81
2023-03-29T13:37:58.901Z,101200.50
2023-03-29T13:40:46.594Z,101209.78
2023-03-29T13:43:24.539Z,101217.69
2023-03-29T13:46:22.414Z,101206.28
2023-03-29T13:48:55.296Z,101216.91
2023-03-29T13:51:33.528Z,101209.97
2023-03-29T13:54:07.342Z,101218.47
2023-03-29T13:56:40.219Z,101208.88
2023-03-29T13:59:15.411Z,101195.63
2023-03-29T14:01:50.587Z,101180.44
2023-03-29T14:04:24.654Z,101182.69
2023-03-29T14:06:56.915Z,101178.56
2023-03-29T14:09:30.021Z,101178.25
2023-03-29T14:11:59.235Z,101158.19
2023-03-29T14:14:29.820Z,101161.03
2023-03-29T14:16:58.330Z,101166.63
2023-03-29T14:19:32.088Z,101161.47
2023-03-29T14:22:03.114Z,101161.75
2023-03-29T14:24:35.751Z,101155.97
2023-03-29T14:27:05.116Z,101161.31
2023-03-29T14:29:33.144Z,101156.13
2023-03-29T14:32:10.208Z,101153.97
2023-03-29T14:34:38.901Z,101151.06
2023-03-29T14:37:09.223Z,101152.56
2023-03-29T14:39:37.536Z,101139.00
2023-03-29T14:42:11.349Z,101131.66
2023-03-29T14:44:39.483Z,101131.91
2023-03-29T14:47:07.467Z,101132.78
2023-03-29T14:49:35.851Z,101127.13
2023-03-29T14:52:03.864Z,101125.56
2023-03-29T14:54:36.143Z,101116.38
2023-03-29T14:57:07.270Z,101112.09
2023-03-29T14:59:39.182Z,101105.75
2023-03-29T15:02:23.753Z,101098.31
2023-03-29T15:04:57.474Z,101110.13
2023-03-29T15:07:27.027Z,101104.16
2023-03-29T15:09:58.634Z,101098.06
2023-03-29T15:12:29.725Z,101091.16
2023-03-29T15:14:57.479Z,101079.53
2023-03-29T15:17:43.175Z,101085.59
2023-03-29T15:20:23.250Z,101076.63
2023-03-29T15:22:58.753Z,101080.41
2023-03-29T15:25:33.294Z,101076.41
2023-03-29T15:28:01.871Z,101068.19
2023-03-29T15:30:34.730Z,101066.47
2023-03-29T15:33:17.756Z,101071.50
2023-03-29T15:35:49.859Z,101052.13
2023-03-29T15:38:18.569Z,101066.88
2023-03-29T15:40:48.042Z,101058.09
2023-03-29T15:43:16.172Z,101055.34
2023-03-29T15:45:45.388Z,101057.78
2023-03-29T15:48:16.649Z,101053.06
2023-03-29T15:50:45.305Z,101038.59
2023-03-29T15:53:15.634Z,101039.06
2023-03-29T15:55:48.710Z,101033.84
2023-03-29T15:58:19.060Z,101027.91
2023-03-29T16:00:51.544Z,101016.94
2023-03-29T16:03:19.525Z,101005.97
2023-03-29T16:05:47.782Z,100999.50
2023-03-29T16:08:15.689Z,101000.56
2023-03-29T16:10:44.697Z,101007.06
2023-03-29T16:13:15.274Z,101004.63
2023-03-29T16:15:44.140Z,100990.44
2023-03-29T16:18:11.895Z,100983.69
2023-03-29T16:20:39.715Z,100977.28
2023-03-29T16:23:09.328Z,100965.81
2023-03-29T16:25:39.885Z,100965.81
2023-03-29T16:28:09.025Z,100965.53
2023-03-29T16:30:39.877Z,100958.53
2023-03-29T16:33:08.757Z,100956.53
2023-03-29T16:35:39.823Z,100956.06
2023-03-29T16:38:08.688Z,100937.84
2023-03-29T16:40:37.102Z,100934.03
2023-03-29T16:43:04.919Z,100932.25
2023-03-29T16:45:32.859Z,100925.25
2023-03-29T16:48:02.541Z,100917.88
2023-03-29T16:50:30.663Z,100920.81
2023-03-29T16:52:58.535Z,100925.28
2023-03-29T16:55:26.317Z,100932.28
2023-03-29T16:57:54.138Z,100927.25
2023-03-29T17:00:23.055Z,100926.69
2023-03-29T17:02:51.006Z,100918.97
2023-03-29T17:05:20.506Z,100911.66
2023-03-29T17:07:48.267Z,100923.59
2023-03-29T17:10:16.445Z,100918.38
2023-03-29T17:12:44.207Z,100916.69
2023-03-29T17:15:12.157Z,100917.66
2023-03-29T17:17:40.130Z,100913.38
2023-03-29T17:20:11.894Z,100900.44
2023-03-29T17:22:41.468Z,100904.69
2023-03-29T17:25:10.234Z,100901.66
2023-03-29T17:27:38.482Z,100901.88
2023-03-29T17:30:07.368Z,100895.78
2023-03-29T17:32:35.591Z,100899.00
2023-03-29T17:35:03.882Z,100895.59
2023-03-29T17:37:31.723Z,100884.91
2023-03-29T17:40:01.044Z,100882.94
2023-03-29T17:42:29.084Z,100875.34
2023-03-29T17:44:56.859Z,100879.03
2023-03-29T17:47:24.685Z,100876.31
2023-03-29T17:49:52.599Z,100864.03
2023-03-29T17:52:20.390Z,100870.47
2023-03-29T17:54:48.193Z,100872.63
2023-03-29T17:57:17.373Z,100862.13
2023-03-29T17:59:45.387Z,100856.13
2023-03-29T18:02:18.064Z,100858.56
2023-03-29T18:04:46.274Z,100865.75
2023-03-29T18:07:14.503Z,100861.50
2023-03-29T18:09:42.478Z,100855.44
2023-03-29T18:12:10.979Z,100857.91
2023-03-29T18:14:40.166Z,100858.28
2023-03-29T18:17:08.065Z,100855.06
2023-03-29T18:19:35.916Z,100853.28
2023-03-29T18:22:03.993Z,100850.25
2023-03-29T18:24:31.894Z,100848.19
2023-03-29T18:26:59.696Z,100843.84
2023-03-29T18:29:27.653Z,100846.28
2023-03-29T18:31:56.854Z,100846.00
2023-03-29T18:34:24.604Z,100834.38
2023-03-29T18:36:53.655Z,100828.34
2023-03-29T18:39:21.460Z,100836.53
2023-03-29T18:41:49.265Z,100826.84
2023-03-29T18:44:17.119Z,100829.75
2023-03-29T18:46:45.029Z,100832.69
2023-03-29T18:49:14.216Z,100824.06
2023-03-29T18:51:42.132Z,100830.94
2023-03-29T18:54:09.961Z,100837.94
2023-03-29T18:56:37.786Z,100831.22
2023-03-29T18:59:06.366Z,100827.94
2023-03-29T19:01:34.626Z,100823.69
2023-03-29T19:04:02.520Z,100825.97
2023-03-29T19:06:31.874Z,100832.66
2023-03-29T19:09:01.956Z,100822.94
2023-03-29T19:11:30.500Z,100830.09
2023-03-29T19:13:58.375Z,100822.66
2023-03-29T19:16:27.500Z,100813.22
2023-03-29T19:18:55.833Z,100811.69
2023-03-29T19:21:23.719Z,100817.91
2023-03-29T19:23:53.285Z,100812.16
2023-03-29T19:26:21.661Z,100817.53
2023-03-29T19:28:49.528Z,100808.88
2023-03-29T19:31:17.444Z,100814.22
2023-03-29T19:33:45.429Z,100802.72
2023-03-29T19:36:13.565Z,100796.16
2023-03-29T19:38:41.802Z,100789.50
2023-03-29T19:41:12.112Z,100787.22
2023-03-29T19:43:39.885Z,100776.28
2023-03-29T19:46:10.468Z,100772.50
2023-03-29T19:48:38.656Z,100763.06
2023-03-29T19:51:06.921Z,100753.34
2023-03-29T19:53:37.156Z,100745.59
2023-03-29T19:56:07.602Z,100745.13
2023-03-29T19:58:37.449Z,100738.63
2023-03-29T20:01:06.031Z,100745.31
2023-03-29T20:03:34.385Z,100733.13
2023-03-29T20:06:02.644Z,100729.16
2023-03-29T20:08:30.600Z,100729.16
2023-03-29T20:10:59.575Z,100719.75
2023-03-29T20:13:37.559Z,100710.00
2023-03-29T20:16:09.571Z,100714.28
2023-03-29T20:18:38.561Z,100708.06
2023-03-29T20:21:06.549Z,100707.00
2023-03-29T20:23:34.515Z,100708.22
2023-03-29T20:26:03.156Z,100709.47
2023-03-29T20:28:31.506Z,100702.00
2023-03-29T20:31:04.106Z,100706.25
2023-03-29T20:33:33.545Z,100700.31
2023-03-29T20:36:01.482Z,100687.56
2023-03-29T20:38:29.316Z,100670.66
2023-03-29T20:40:57.078Z,100665.69
2023-03-29T20:43:24.926Z,100651.72
2023-03-29T20:45:54.291Z,100644.53
2023-03-29T20:48:24.714Z,100648.31
2023-03-29T20:50:54.169Z,100639.16
2023-03-29T20:53:21.936Z,100633.50
2023-03-29T20:55:49.707Z,100636.81
2023-03-29T20:58:17.510Z,100630.84
2023-03-29T21:00:46.765Z,100632.16
2023-03-29T21:03:14.722Z,100616.75
2023-03-29T21:05:43.347Z,100616.28
2023-03-29T21:08:12.482Z,100615.81
2023-03-29T21:10:42.401Z,100604.38
2023-03-29T21:13:10.182Z,100603.91
2023-03-29T21:15:38.098Z,100598.91
2023-03-29T21:18:06.682Z,100608.16
2023-03-29T21:20:34.483Z,100608.44
2023-03-29T21:23:02.233Z,100607.69
2023-03-29T21:25:31.567Z,100608.44
2023-03-29T21:27:59.313Z,100603.47
2023-03-29T21:30:28.323Z,100601.47
2023-03-29T21:32:57.292Z,100582.78
2023-03-29T21:35:25.127Z,100573.81
2023-03-29T21:37:52.875Z,100580.03
2023-03-29T21:40:20.791Z,100575.59
2023-03-29T21:42:49.907Z,100577.56
2023-03-29T21:45:17.836Z,100575.31
2023-03-29T21:47:45.838Z,100578.03
2023-03-29T21:50:13.767Z,100572.31
2023-03-29T21:52:41.555Z,100574.28
2023-03-29T21:55:09.573Z,100559.28
2023-03-29T21:57:37.357Z,100560.25
2023-03-29T22:00:11.255Z,100552.97
2023-03-29T22:02:39.922Z,100551.00
2023-03-29T22:05:08.280Z,100547.22
2023-03-29T22:07:38.679Z,100552.69
2023-03-29T22:10:07.452Z,100539.19
2023-03-29T22:12:37.109Z,100539.19
2023-03-29T22:15:07.185Z,100527.22
2023-03-29T22:17:35.762Z,100525.72
2023-03-29T22:20:13.368Z,100533.94
2023-03-29T22:22:44.962Z,100542.91
2023-03-29T22:25:13.168Z,100542.16
2023-03-29T22:27:40.979Z,100547.13
2023-03-29T22:30:11.478Z,100541.66
2023-03-29T22:32:39.280Z,100533.94
2023-03-29T22:35:07.999Z,100540.63
2023-03-29T22:37:41.441Z,100540.34
2023-03-29T22:40:11.478Z,100529.91
2023-03-29T22:42:39.425Z,100536.13
2023-03-29T22:45:10.903Z,100533.38
2023-03-29T22:47:38.761Z,100537.16
2023-03-29T22:50:08.169Z,100528.94
2023-03-29T22:52:36.092Z,100519.75
2023-03-29T22:55:03.893Z,100516.56
2023-03-29T22:57:31.638Z,100505.44
2023-03-29T22:59:59.392Z,100511.16
2023-03-29T23:02:28.548Z,100512.22
2023-03-29T23:04:56.308Z,100517.19
2023-03-29T23:07:24.041Z,100507.75
2023-03-29T23:09:51.814Z,100502.81
2023-03-29T23:12:19.572Z,100504.63
2023-03-29T23:14:47.352Z,100503.38
2023-03-29T23:17:19.305Z,100497.72
2023-03-29T23:19:48.882Z,100491.75
2023-03-29T23:22:16.662Z,100485.81
2023-03-29T23:24:46.536Z,100479.84
2023-03-29T23:27:14.519Z,100488.81
2023-03-29T23:29:45.258Z,100489.38
2023-03-29T23:32:14.131Z,100492.84
2023-03-29T23:34:41.946Z,100482.19
2023-03-29T23:37:11.096Z,100480.94
2023-03-29T23:39:38.835Z,100477.22
2023-03-29T23:42:06.769Z,100475.28
2023-03-29T23:44:34.573Z,100463.06
2023-03-29T23:47:02.489Z,100467.34
2023-03-29T23:49:30.714Z,100466.34
2023-03-29T23:52:00.068Z,100465.88
2023-03-29T23:54:29.583Z,100472.88
2023-03-29T23:56:57.517Z,100463.69
2023-03-29T23:59:28.831Z,100475.41
